Time;durP1;ratioP1;P1;durP2;ratioP2;P2;SDS_P1;SDS_P2;PMS_P1;PMS_P2;Temp;Humidity;BMP_temperature;BMP_pressure;BME280_temperature;BME280_humidity;BME280_pressure;Samples;Min_cycle;Max_cycle;Signal;HPM_P1;HPM_P2
2022/03/01 00:01:59;;;;;;;;;;;2.80;99.90;;;;;;5082173;28;19931;-71
2022/03/01 00:04:24;;;;;;;;;;;3.20;99.90;;;;;;5098873;28;19931;-69
2022/03/01 00:06:50;;;;;;;;;;;3.80;99.90;;;;;;5116745;28;19982;-72
2022/03/01 00:09:16;;;;;;;;;;;2.50;99.90;;;;;;5137294;27;19924;-71
2022/03/01 00:11:41;;;;;;;;;;;2.50;99.90;;;;;;5137395;27;19927;-70
2022/03/01 00:14:07;;;;;;;;;;;3.00;99.90;;;;;;5137183;27;19968;-73
2022/03/01 00:16:33;;;;;;;;;;;3.40;99.90;;;;;;5118892;27;20386;-71
2022/03/01 00:18:59;;;;;;;;;;;2.40;99.90;;;;;;5153461;27;19931;-70
2022/03/01 00:21:25;;;;;;;;;;;2.40;99.90;;;;;;5118902;27;19923;-72
2022/03/01 00:23:51;;;;;;;;;;;3.30;99.90;;;;;;5119108;27;19973;-70
2022/03/01 00:26:17;;;;;;;;;;;2.30;99.90;;;;;;5118946;27;19923;-73
2022/03/01 00:28:43;;;;;;;;;;;3.20;99.90;;;;;;5136903;27;19942;-72
2022/03/01 00:31:08;;;;;;;;;;;2.30;99.90;;;;;;5136930;27;19923;-72
2022/03/01 00:33:34;;;;;;;;;;;2.30;99.90;;;;;;5136722;27;19969;-70
2022/03/01 00:35:59;;;;;;;;;;;2.50;99.90;;;;;;5136658;27;19924;-70
2022/03/01 00:38:25;;;;;;;;;;;2.80;99.90;;;;;;5136884;27;19930;-69
2022/03/01 00:40:51;;;;;;;;;;;2.20;99.90;;;;;;5136854;27;19923;-70
2022/03/01 00:43:16;;;;;;;;;;;2.20;99.90;;;;;;5136736;27;19976;-70
2022/03/01 00:45:42;;;;;;;;;;;2.20;99.90;;;;;;5135369;27;19934;-71
2022/03/01 00:48:08;;;;;;;;;;;4.00;99.90;;;;;;5151909;27;20006;-72
2022/03/01 00:50:33;;;;;;;;;;;3.40;99.90;;;;;;5136735;27;19927;-70
2022/03/01 00:52:59;;;;;;;;;;;2.80;99.90;;;;;;5136417;27;19953;-74
2022/03/01 00:55:25;;;;;;;;;;;4.10;99.90;;;;;;5136423;27;20434;-70
2022/03/01 00:57:50;;;;;;;;;;;0.50;99.90;;;;;;5152429;27;19924;-73
2022/03/01 01:00:16;;;;;;;;;;;2.10;99.90;;;;;;5117876;27;19923;-69
2022/03/01 01:02:42;;;;;;;;;;;2.10;99.90;;;;;;5118188;27;20386;-74
2022/03/01 01:05:08;;;;;;;;;;;2.10;99.90;;;;;;5136333;27;19923;-70
2022/03/01 01:07:33;;;;;;;;;;;2.10;99.90;;;;;;5118026;27;19969;-72
2022/03/01 01:09:59;;;;;;;;;;;3.60;99.90;;;;;;5136362;27;20310;-70
2022/03/01 01:12:24;;;;;;;;;;;2.50;99.90;;;;;;5136174;27;19923;-72
2022/03/01 01:14:50;;;;;;;;;;;3.00;99.90;;;;;;5152201;27;19923;-70
2022/03/01 01:17:16;;;;;;;;;;;3.40;99.90;;;;;;5135969;27;19923;-71
2022/03/01 01:19:41;;;;;;;;;;;2.10;99.90;;;;;;5113746;28;20276;-70
2022/03/01 01:24:51;;;;;;;;;;;2.10;99.90;;;;;;5097440;28;20016;-74
2022/03/01 01:27:17;;;;;;;;;;;0.50;99.90;;;;;;5115302;28;19997;-69
2022/03/01 01:29:42;;;;;;;;;;;3.20;99.90;;;;;;5115093;28;19928;-70
2022/03/01 01:32:08;;;;;;;;;;;2.10;99.90;;;;;;5115258;28;20382;-71
2022/03/01 01:34:34;;;;;;;;;;;2.10;99.90;;;;;;5114996;28;20336;-72
2022/03/01 01:36:59;;;;;;;;;;;3.00;99.90;;;;;;5114967;28;20357;-70
2022/03/01 01:39:25;;;;;;;;;;;2.10;99.90;;;;;;5097335;28;19924;-70
2022/03/01 01:41:51;;;;;;;;;;;2.10;99.90;;;;;;5115148;28;20083;-70
2022/03/01 01:44:16;;;;;;;;;;;3.50;99.90;;;;;;5114957;28;19924;-73
2022/03/01 01:46:42;;;;;;;;;;;2.10;99.90;;;;;;5114890;28;19950;-69
2022/03/01 01:49:08;;;;;;;;;;;2.00;99.90;;;;;;5114858;28;20352;-70
2022/03/01 01:51:33;;;;;;;;;;;2.90;99.90;;;;;;5096381;28;19934;-74
2022/03/01 01:53:59;;;;;;;;;;;2.00;99.90;;;;;;5114795;28;19976;-74
2022/03/01 01:56:24;;;;;;;;;;;2.60;99.90;;;;;;5096658;28;19924;-75
2022/03/01 01:58:50;;;;;;;;;;;2.30;99.90;;;;;;5114553;28;20011;-69
2022/03/01 02:01:16;;;;;;;;;;;2.00;99.90;;;;;;5114593;28;20084;-72
2022/03/01 02:03:41;;;;;;;;;;;2.00;99.90;;;;;;5114652;28;19923;-75
2022/03/01 02:06:07;;;;;;;;;;;2.10;99.90;;;;;;5114492;28;19931;-70
2022/03/01 02:08:33;;;;;;;;;;;2.00;99.90;;;;;;5096441;28;19927;-70
2022/03/01 02:10:59;;;;;;;;;;;3.20;99.90;;;;;;5114540;28;20297;-70
2022/03/01 02:13:25;;;;;;;;;;;4.00;99.90;;;;;;5096602;28;19986;-72
2022/03/01 02:15:51;;;;;;;;;;;3.00;99.90;;;;;;5096120;28;19982;-68
2022/03/01 02:18:17;;;;;;;;;;;3.60;99.90;;;;;;5096437;28;19923;-70
2022/03/01 02:20:43;;;;;;;;;;;1.90;99.90;;;;;;5114551;28;20513;-70
2022/03/01 02:23:09;;;;;;;;;;;2.80;99.90;;;;;;5096046;28;19931;-70
2022/03/01 02:25:35;;;;;;;;;;;1.90;99.90;;;;;;5096287;28;19924;-69
2022/03/01 02:28:01;;;;;;;;;;;0.30;99.90;;;;;;5114450;28;19974;-70
2022/03/01 02:30:26;;;;;;;;;;;1.80;99.90;;;;;;5114137;28;19923;-70
2022/03/01 02:32:52;;;;;;;;;;;1.90;99.90;;;;;;5114226;28;19980;-73
2022/03/01 02:35:18;;;;;;;;;;;1.90;99.90;;;;;;5095939;28;19974;-73
2022/03/01 02:37:44;;;;;;;;;;;2.50;99.90;;;;;;5114020;28;19924;-70
2022/03/01 02:40:09;;;;;;;;;;;2.00;99.90;;;;;;5114228;28;19924;-70
2022/03/01 02:42:39;;;;;;;;;;;1.90;99.90;;;;;;5114246;28;19931;-73
2022/03/01 02:45:05;;;;;;;;;;;1.90;99.90;;;;;;5096009;28;19924;-70
2022/03/01 02:47:30;;;;;;;;;;;1.90;99.90;;;;;;5096194;28;19930;-70
2022/03/01 02:49:56;;;;;;;;;;;1.90;99.90;;;;;;5092639;28;20073;-72
2022/03/01 02:52:22;;;;;;;;;;;2.80;99.90;;;;;;5093555;28;19928;-72
2022/03/01 02:54:47;;;;;;;;;;;3.20;99.90;;;;;;5093761;28;19924;-70
2022/03/01 02:57:13;;;;;;;;;;;2.30;99.90;;;;;;5093610;28;20295;-70
2022/03/01 02:59:38;;;;;;;;;;;1.90;99.90;;;;;;5110516;28;20018;-70
2022/03/01 03:02:04;;;;;;;;;;;2.90;99.90;;;;;;5113027;28;19927;-71
2022/03/01 03:04:30;;;;;;;;;;;1.90;99.90;;;;;;5113922;28;19924;-75
2022/03/01 03:06:56;;;;;;;;;;;3.30;99.90;;;;;;5147285;27;20294;-70
2022/03/01 03:09:21;;;;;;;;;;;3.40;99.90;;;;;;5112773;28;19932;-70
2022/03/01 03:11:47;;;;;;;;;;;1.80;99.90;;;;;;5115594;28;19924;-71
2022/03/01 03:14:13;;;;;;;;;;;3.20;99.90;;;;;;5116862;28;19923;-73
2022/03/01 03:16:38;;;;;;;;;;;1.80;99.90;;;;;;5151633;27;19930;-76
2022/03/01 03:19:04;;;;;;;;;;;3.40;99.90;;;;;;5117807;28;20294;-70
2022/03/01 03:21:29;;;;;;;;;;;1.80;99.90;;;;;;5116607;28;20301;-72
2022/03/01 03:23:55;;;;;;;;;;;3.70;99.90;;;;;;5117594;28;19939;-70
2022/03/01 03:26:20;;;;;;;;;;;2.80;99.90;;;;;;5116609;28;19992;-70
2022/03/01 03:28:46;;;;;;;;;;;4.00;99.90;;;;;;5117694;28;19930;-71
2022/03/01 03:31:12;;;;;;;;;;;2.10;99.90;;;;;;5117582;28;20447;-70
2022/03/01 03:33:38;;;;;;;;;;;2.50;99.90;;;;;;5117520;28;19970;-71
2022/03/01 03:36:04;;;;;;;;;;;1.80;99.90;;;;;;5117366;28;20361;-75
2022/03/01 03:38:29;;;;;;;;;;;2.00;99.90;;;;;;5117397;28;20022;-73
2022/03/01 03:40:55;;;;;;;;;;;2.60;99.90;;;;;;5117316;28;19924;-73
2022/03/01 03:43:21;;;;;;;;;;;3.50;99.90;;;;;;5116598;28;20385;-74
2022/03/01 03:45:46;;;;;;;;;;;1.70;99.90;;;;;;5117247;28;20294;-73
2022/03/01 03:48:12;;;;;;;;;;;1.70;99.90;;;;;;5117299;28;19928;-73
2022/03/01 03:50:38;;;;;;;;;;;2.40;99.90;;;;;;5107680;28;19924;-70
2022/03/01 03:53:04;;;;;;;;;;;1.70;99.90;;;;;;5117108;28;20393;-70
2022/03/01 03:55:29;;;;;;;;;;;2.50;99.90;;;;;;5098698;28;19924;-72
2022/03/01 03:57:55;;;;;;;;;;;1.70;99.90;;;;;;5117060;28;19931;-70
2022/03/01 04:00:21;;;;;;;;;;;1.80;99.90;;;;;;5117064;28;19975;-71
2022/03/01 04:02:47;;;;;;;;;;;3.00;99.90;;;;;;5117008;28;19971;-70
2022/03/01 04:05:14;;;;;;;;;;;3.40;99.90;;;;;;5098941;28;20382;-71
2022/03/01 04:07:40;;;;;;;;;;;1.60;99.90;;;;;;5098847;28;20340;-75
2022/03/01 04:10:06;;;;;;;;;;;1.60;99.90;;;;;;5116769;28;19927;-70
2022/03/01 04:12:31;;;;;;;;;;;1.50;99.90;;;;;;5116954;28;19950;-71
2022/03/01 04:14:57;;;;;;;;;;;2.30;99.90;;;;;;5116650;28;19924;-70
2022/03/01 04:17:23;;;;;;;;;;;3.50;99.90;;;;;;5098552;28;19931;-70
2022/03/01 04:19:48;;;;;;;;;;;2.70;99.90;;;;;;5111513;28;19924;-73
2022/03/01 04:22:14;;;;;;;;;;;1.60;99.90;;;;;;5091717;28;19979;-75
2022/03/01 04:24:39;;;;;;;;;;;1.70;99.90;;;;;;5116480;28;19961;-74
2022/03/01 04:27:05;;;;;;;;;;;2.50;99.90;;;;;;5116307;28;19979;-70
2022/03/01 04:29:31;;;;;;;;;;;1.50;99.90;;;;;;5098398;28;19924;-70
2022/03/01 04:31:56;;;;;;;;;;;1.50;99.90;;;;;;5116476;28;20401;-74
2022/03/01 04:34:22;;;;;;;;;;;1.50;99.90;;;;;;5116262;28;20435;-70
2022/03/01 04:36:48;;;;;;;;;;;2.50;99.90;;;;;;5116232;28;19936;-70
2022/03/01 04:39:13;;;;;;;;;;;1.60;99.90;;;;;;5097973;28;19930;-69
2022/03/01 04:41:39;;;;;;;;;;;2.30;99.90;;;;;;5116137;28;19969;-70
2022/03/01 04:44:07;;;;;;;;;;;1.60;99.90;;;;;;5116266;28;19924;-69
2022/03/01 04:46:33;;;;;;;;;;;1.50;99.90;;;;;;5098248;28;20035;-70
2022/03/01 04:48:59;;;;;;;;;;;1.80;99.90;;;;;;5116051;28;19924;-72
2022/03/01 04:51:24;;;;;;;;;;;2.50;99.90;;;;;;5116050;28;19924;-72
2022/03/01 04:53:50;;;;;;;;;;;2.80;99.90;;;;;;5115841;28;19978;-71
2022/03/01 04:56:16;;;;;;;;;;;2.90;99.90;;;;;;5097823;28;19923;-70
2022/03/01 04:58:42;;;;;;;;;;;0.40;99.90;;;;;;5115734;28;20025;-70
2022/03/01 05:01:08;;;;;;;;;;;1.50;99.90;;;;;;5115743;28;19936;-70
2022/03/01 05:03:33;;;;;;;;;;;1.50;99.90;;;;;;5115856;28;19928;-69
2022/03/01 05:05:59;;;;;;;;;;;3.70;99.90;;;;;;5115779;28;19924;-70
2022/03/01 05:08:30;;;;;;;;;;;1.50;99.90;;;;;;5097478;28;19989;-71
2022/03/01 05:10:59;;;;;;;;;;;1.60;99.90;;;;;;5097641;28;19924;-70
2022/03/01 05:13:25;;;;;;;;;;;-0.10;99.90;;;;;;5097787;28;20401;-73
2022/03/01 05:15:51;;;;;;;;;;;2.50;99.90;;;;;;5080556;28;19928;-70
2022/03/01 05:18:17;;;;;;;;;;;3.00;99.90;;;;;;5097205;28;20378;-72
2022/03/01 05:20:42;;;;;;;;;;;2.30;99.90;;;;;;5115264;28;19927;-70
2022/03/01 05:23:08;;;;;;;;;;;1.60;99.90;;;;;;5097381;28;19931;-70
2022/03/01 05:25:33;;;;;;;;;;;1.50;99.90;;;;;;5097395;28;19923;-70
2022/03/01 05:27:59;;;;;;;;;;;2.30;99.90;;;;;;5115219;28;19923;-70
2022/03/01 05:30:25;;;;;;;;;;;1.60;99.90;;;;;;5114893;28;19930;-70
2022/03/01 05:32:51;;;;;;;;;;;1.60;99.90;;;;;;5115169;28;20010;-75
2022/03/01 05:35:17;;;;;;;;;;;1.60;99.90;;;;;;5114709;28;19985;-75
2022/03/01 05:37:44;;;;;;;;;;;1.60;99.90;;;;;;5115136;28;19924;-70
2022/03/01 05:40:12;;;;;;;;;;;1.60;99.90;;;;;;5115072;28;19928;-68
2022/03/01 05:42:38;;;;;;;;;;;2.50;99.90;;;;;;5114884;28;19924;-70
2022/03/01 05:45:04;;;;;;;;;;;1.60;99.90;;;;;;5115018;28;20311;-70
2022/03/01 05:47:30;;;;;;;;;;;1.60;99.90;;;;;;5096402;28;19928;-70
2022/03/01 05:49:56;;;;;;;;;;;1.60;99.90;;;;;;5109050;28;19928;-72
2022/03/01 05:52:21;;;;;;;;;;;2.80;99.90;;;;;;5092440;28;20272;-74
2022/03/01 05:54:47;;;;;;;;;;;1.60;99.90;;;;;;5114669;28;19969;-70
2022/03/01 05:57:13;;;;;;;;;;;1.60;99.90;;;;;;5114527;28;19923;-71
2022/03/01 05:59:38;;;;;;;;;;;1.60;99.90;;;;;;5096461;28;19924;-70
2022/03/01 06:02:04;;;;;;;;;;;1.60;99.90;;;;;;5114661;28;19953;-75
2022/03/01 06:04:30;;;;;;;;;;;1.60;99.90;;;;;;5114668;28;19924;-70
2022/03/01 06:06:55;;;;;;;;;;;1.60;99.90;;;;;;5114640;28;19989;-72
2022/03/01 06:09:21;;;;;;;;;;;1.60;99.90;;;;;;5114363;28;20370;-70
2022/03/01 06:11:47;;;;;;;;;;;1.60;99.90;;;;;;5096528;28;19930;-74
2022/03/01 06:14:12;;;;;;;;;;;1.20;99.90;;;;;;5130293;27;19924;-76
2022/03/01 06:16:38;;;;;;;;;;;3.10;99.90;;;;;;5096182;28;19938;-72
2022/03/01 06:19:04;;;;;;;;;;;1.60;99.90;;;;;;5114534;28;19924;-73
2022/03/01 06:21:30;;;;;;;;;;;1.80;99.90;;;;;;5096287;28;19930;-70
2022/03/01 06:23:55;;;;;;;;;;;1.60;99.90;;;;;;5114378;28;19924;-72
2022/03/01 06:26:21;;;;;;;;;;;2.10;99.90;;;;;;5114309;28;20052;-70
2022/03/01 06:28:46;;;;;;;;;;;1.50;99.90;;;;;;5114093;28;19923;-70
2022/03/01 06:31:12;;;;;;;;;;;3.40;99.90;;;;;;5114306;28;19970;-70
2022/03/01 06:33:37;;;;;;;;;;;1.60;99.90;;;;;;5114260;28;19924;-70
2022/03/01 06:36:03;;;;;;;;;;;1.60;99.90;;;;;;5096022;28;19924;-70
2022/03/01 06:38:29;;;;;;;;;;;1.70;99.90;;;;;;5114149;28;19923;-70
2022/03/01 06:40:56;;;;;;;;;;;2.60;99.90;;;;;;5114107;28;19924;-71
2022/03/01 06:43:25;;;;;;;;;;;1.90;99.90;;;;;;5114011;28;19947;-69
2022/03/01 06:45:50;;;;;;;;;;;3.40;99.90;;;;;;5097039;28;19924;-70
2022/03/01 06:48:16;;;;;;;;;;;2.90;99.90;;;;;;5118471;28;19968;-70
2022/03/01 06:50:41;;;;;;;;;;;1.70;99.90;;;;;;5118215;28;19942;-70
2022/03/01 06:53:07;;;;;;;;;;;1.70;99.90;;;;;;5118464;28;20271;-70
2022/03/01 06:55:33;;;;;;;;;;;2.30;99.90;;;;;;5118090;28;19927;-73
2022/03/01 06:57:58;;;;;;;;;;;1.70;99.90;;;;;;5114646;28;19924;-70
2022/03/01 07:00:24;;;;;;;;;;;1.70;99.90;;;;;;5097749;28;19928;-71
2022/03/01 07:02:50;;;;;;;;;;;2.30;99.90;;;;;;5097736;28;19977;-70
2022/03/01 07:05:17;;;;;;;;;;;1.80;99.90;;;;;;5079697;28;20463;-74
2022/03/01 07:07:42;;;;;;;;;;;2.20;99.90;;;;;;5097924;28;20263;-76
2022/03/01 07:10:11;;;;;;;;;;;2.40;99.90;;;;;;5079489;28;19931;-70
2022/03/01 07:12:36;;;;;;;;;;;0.30;99.90;;;;;;5079270;28;20333;-69
2022/03/01 07:15:02;;;;;;;;;;;2.60;99.90;;;;;;5079339;28;19928;-70
2022/03/01 07:17:28;;;;;;;;;;;2.00;99.90;;;;;;5079735;28;19931;-71
2022/03/01 07:19:54;;;;;;;;;;;2.00;99.90;;;;;;5079189;28;20022;-70
2022/03/01 07:22:19;;;;;;;;;;;2.00;99.90;;;;;;5079506;28;19978;-70
2022/03/01 07:24:45;;;;;;;;;;;3.80;99.90;;;;;;5079114;28;19946;-70
2022/03/01 07:27:11;;;;;;;;;;;3.90;99.90;;;;;;5095178;28;19928;-71
2022/03/01 07:29:37;;;;;;;;;;;2.10;99.90;;;;;;5096990;28;19924;-72
2022/03/01 07:32:04;;;;;;;;;;;2.20;99.90;;;;;;5079347;28;19958;-76
2022/03/01 07:34:30;;;;;;;;;;;2.20;99.90;;;;;;5095805;28;19924;-70
2022/03/01 07:36:56;;;;;;;;;;;2.20;99.90;;;;;;5097015;28;19969;-74
2022/03/01 07:39:21;;;;;;;;;;;2.30;99.90;;;;;;5096982;28;19934;-71
2022/03/01 07:41:47;;;;;;;;;;;2.30;99.90;;;;;;5096890;28;20379;-72
2022/03/01 07:44:29;;;;;;;;;;;2.40;99.90;;;;;;5078902;28;19924;-70
2022/03/01 07:46:55;;;;;;;;;;;2.40;99.90;;;;;;5097010;28;19924;-70
2022/03/01 07:49:21;;;;;;;;;;;2.90;99.90;;;;;;5062241;28;19930;-70
2022/03/01 07:51:46;;;;;;;;;;;4.00;99.90;;;;;;5096737;28;19930;-70
2022/03/01 07:54:12;;;;;;;;;;;3.50;99.90;;;;;;5078814;28;20294;-70
2022/03/01 07:56:39;;;;;;;;;;;2.50;99.90;;;;;;5096157;28;20027;-70
2022/03/01 07:59:05;;;;;;;;;;;2.60;99.90;;;;;;5096418;28;19928;-74
2022/03/01 08:01:31;;;;;;;;;;;3.20;99.90;;;;;;5115945;28;20366;-71
2022/03/01 08:03:56;;;;;;;;;;;2.80;99.90;;;;;;5082159;28;19923;-70
2022/03/01 08:06:22;;;;;;;;;;;3.10;99.90;;;;;;5098991;28;19928;-69
2022/03/01 08:08:48;;;;;;;;;;;3.30;99.90;;;;;;5133067;27;19930;-71
2022/03/01 08:11:13;;;;;;;;;;;3.10;99.90;;;;;;5116733;28;19927;-73
2022/03/01 08:13:39;;;;;;;;;;;3.00;99.90;;;;;;5116650;28;19924;-69
2022/03/01 08:16:05;;;;;;;;;;;3.10;99.90;;;;;;5116459;28;19982;-70
2022/03/01 08:18:31;;;;;;;;;;;3.10;99.90;;;;;;5116744;28;19924;-74
2022/03/01 08:20:57;;;;;;;;;;;3.20;99.90;;;;;;5116530;28;20378;-71
2022/03/01 08:23:23;;;;;;;;;;;3.30;99.90;;;;;;5116526;28;19931;-70
2022/03/01 08:25:49;;;;;;;;;;;3.30;99.90;;;;;;5132591;27;19923;-70
2022/03/01 08:28:15;;;;;;;;;;;2.50;99.90;;;;;;5097902;28;19924;-70
2022/03/01 08:30:40;;;;;;;;;;;5.10;99.90;;;;;;5116229;28;19923;-71
2022/03/01 08:33:06;;;;;;;;;;;3.60;99.90;;;;;;5116374;28;19924;-73
2022/03/01 08:35:32;;;;;;;;;;;3.60;99.90;;;;;;5116292;28;19934;-71
2022/03/01 08:38:02;;;;;;;;;;;3.60;99.90;;;;;;5116352;28;19923;-70
2022/03/01 08:40:32;;;;;;;;;;;3.70;99.90;;;;;;5116186;28;19928;-71
2022/03/01 08:42:57;;;;;;;;;;;3.80;99.90;;;;;;5098044;28;19931;-72
2022/03/01 08:45:23;;;;;;;;;;;3.90;99.90;;;;;;5132138;27;19923;-71
2022/03/01 08:47:50;;;;;;;;;;;3.90;99.90;;;;;;5116221;28;20299;-72
2022/03/01 08:50:15;;;;;;;;;;;3.90;99.90;;;;;;5097897;28;20432;-72
2022/03/01 08:52:41;;;;;;;;;;;5.60;99.90;;;;;;5116127;28;19924;-70
2022/03/01 08:55:07;;;;;;;;;;;4.80;99.90;;;;;;5097206;28;19968;-73
2022/03/01 08:57:33;;;;;;;;;;;4.00;99.90;;;;;;5115615;28;19935;-70
2022/03/01 08:59:59;;;;;;;;;;;5.40;99.90;;;;;;5115775;28;19924;-70
2022/03/01 09:02:24;;;;;;;;;;;5.10;99.90;;;;;;5097452;28;19931;-70
2022/03/01 09:04:50;;;;;;;;;;;4.80;99.90;;;;;;5097877;28;20287;-70
2022/03/01 09:07:16;;;;;;;;;;;4.20;99.90;;;;;;5115736;28;19971;-72
2022/03/01 09:09:41;;;;;;;;;;;4.30;99.90;;;;;;5114785;28;19974;-74
2022/03/01 09:12:07;;;;;;;;;;;4.30;99.90;;;;;;5097420;28;19928;-70
2022/03/01 09:14:48;;;;;;;;;;;4.40;99.90;;;;;;5130693;27;20026;-70
2022/03/01 09:17:13;;;;;;;;;;;4.40;99.90;;;;;;5097601;28;20271;-70
2022/03/01 09:19:39;;;;;;;;;;;4.50;99.90;;;;;;5079647;28;19931;-70
2022/03/01 09:22:05;;;;;;;;;;;5.70;99.90;;;;;;5097530;28;19969;-71
2022/03/01 09:24:30;;;;;;;;;;;5.40;99.90;;;;;;5115365;28;19923;-74
2022/03/01 09:27:00;;;;;;;;;;;4.60;99.90;;;;;;5115136;28;20383;-74
2022/03/01 09:29:27;;;;;;;;;;;4.70;99.90;;;;;;5114895;28;20381;-73
2022/03/01 09:31:52;;;;;;;;;;;4.80;99.90;;;;;;5115158;28;20397;-70
2022/03/01 09:34:18;;;;;;;;;;;5.30;99.90;;;;;;5096810;28;19986;-70
2022/03/01 09:36:43;;;;;;;;;;;5.00;99.90;;;;;;5115130;28;19975;-71
2022/03/01 09:39:09;;;;;;;;;;;5.10;99.90;;;;;;5114922;28;19931;-70
2022/03/01 09:41:37;;;;;;;;;;;5.50;99.90;;;;;;5114979;28;20018;-72
2022/03/01 09:44:02;;;;;;;;;;;5.30;99.90;;;;;;5114990;28;20065;-75
2022/03/01 09:46:28;;;;;;;;;;;5.30;99.90;;;;;;5114961;28;19977;-70
2022/03/01 09:48:53;;;;;;;;;;;5.50;99.90;;;;;;5114965;28;19924;-71
2022/03/01 09:51:20;;;;;;;;;;;5.40;99.90;;;;;;5096875;28;19924;-72
2022/03/01 09:53:47;;;;;;;;;;;5.80;99.90;;;;;;5114844;28;20014;-71
2022/03/01 09:56:14;;;;;;;;;;;6.20;99.90;;;;;;5096525;28;19924;-74
2022/03/01 09:58:48;;;;;;;;;;;5.60;99.90;;;;;;5113627;28;20260;-71
2022/03/01 10:01:16;;;;;;;;;;;5.70;99.90;;;;;;5114750;28;19923;-75
2022/03/01 10:03:48;;;;;;;;;;;6.10;99.90;;;;;;5096837;28;19924;-72
2022/03/01 10:06:14;;;;;;;;;;;6.10;99.90;;;;;;5114552;28;20018;-71
2022/03/01 10:08:40;;;;;;;;;;;5.80;99.90;;;;;;5096501;28;19924;-74
2022/03/01 10:11:05;;;;;;;;;;;5.90;99.90;;;;;;5114479;28;20418;-74
2022/03/01 10:13:32;;;;;;;;;;;5.90;99.90;;;;;;5114300;28;19924;-70
2022/03/01 10:16:02;;;;;;;;;;;7.40;99.90;;;;;;5096319;28;19923;-71
2022/03/01 10:18:30;;;;;;;;;;;6.00;99.90;;;;;;5096507;28;20367;-71
2022/03/01 10:21:00;;;;;;;;;;;7.20;99.90;;;;;;5095916;28;19931;-73
2022/03/01 10:23:26;;;;;;;;;;;6.10;99.90;;;;;;5114240;28;19931;-70
2022/03/01 10:25:51;;;;;;;;;;;6.10;99.90;;;;;;5096128;28;19924;-71
2022/03/01 10:28:17;;;;;;;;;;;6.20;99.90;;;;;;5114028;28;19924;-71
2022/03/01 10:30:42;;;;;;;;;;;7.20;99.90;;;;;;5096327;28;19946;-71
2022/03/01 10:33:09;;;;;;;;;;;6.40;99.90;;;;;;5114266;28;19928;-70
2022/03/01 10:35:36;;;;;;;;;;;6.40;99.90;;;;;;5114122;28;19923;-71
2022/03/01 10:38:02;;;;;;;;;;;6.60;99.90;;;;;;5096231;28;19930;-75
2022/03/01 10:40:28;;;;;;;;;;;6.50;99.90;;;;;;5114131;28;19971;-73
2022/03/01 10:43:01;;;;;;;;;;;6.50;99.90;;;;;;5096033;28;19924;-72
2022/03/01 10:45:31;;;;;;;;;;;5.10;99.90;;;;;;5114213;28;19931;-78
2022/03/01 10:47:57;;;;;;;;;;;6.60;99.90;;;;;;5114127;28;19989;-71
2022/03/01 10:50:23;;;;;;;;;;;6.60;99.90;;;;;;5114242;28;19928;-73
2022/03/01 10:52:49;;;;;;;;;;;7.10;99.90;;;;;;5113908;28;20354;-72
2022/03/01 10:55:22;;;;;;;;;;;6.70;99.90;;;;;;5113833;28;19931;-70
2022/03/01 10:58:00;;;;;;;;;;;6.80;99.90;;;;;;5113778;28;19924;-70
2022/03/01 11:00:26;;;;;;;;;;;6.90;99.90;;;;;;5113336;28;19924;-71
2022/03/01 11:02:52;;;;;;;;;;;6.90;99.90;;;;;;5095891;28;20307;-72
2022/03/01 11:05:18;;;;;;;;;;;6.90;99.90;;;;;;5095694;28;19931;-70
2022/03/01 11:07:46;;;;;;;;;;;6.90;99.90;;;;;;5095910;28;19927;-70
2022/03/01 11:10:12;;;;;;;;;;;7.00;99.90;;;;;;5113803;28;20402;-72
2022/03/01 11:12:39;;;;;;;;;;;7.10;99.90;;;;;;5096071;28;19923;-70
2022/03/01 11:15:23;;;;;;;;;;;7.20;99.90;;;;;;5113877;28;19947;-70
2022/03/01 11:17:59;;;;;;;;;;;7.30;99.90;;;;;;5112540;28;20336;-73
2022/03/01 11:20:27;;;;;;;;;;;7.50;99.90;;;;;;5113956;28;19949;-70
2022/03/01 11:22:56;;;;;;;;;;;8.30;99.90;;;;;;5095483;28;19928;-71
2022/03/01 11:25:23;;;;;;;;;;;9.10;99.90;;;;;;5113828;28;19928;-70
2022/03/01 11:27:50;;;;;;;;;;;7.50;99.90;;;;;;5113727;28;20006;-73
2022/03/01 11:30:17;;;;;;;;;;;7.90;99.90;;;;;;5113679;28;19924;-73
2022/03/01 11:32:44;;;;;;;;;;;8.00;99.90;;;;;;5116127;28;19928;-72
2022/03/01 11:35:17;;;;;;;;;;;8.10;99.90;;;;;;5117406;28;20006;-73
2022/03/01 11:37:44;;;;;;;;;;;8.10;99.90;;;;;;5099752;28;19924;-72
2022/03/01 11:40:19;;;;;;;;;;;8.20;99.90;;;;;;5117667;28;19963;-72
2022/03/01 11:42:48;;;;;;;;;;;8.20;99.90;;;;;;5117377;28;19950;-72
2022/03/01 11:45:14;;;;;;;;;;;8.20;99.90;;;;;;5098917;28;20393;-72
2022/03/01 11:47:40;;;;;;;;;;;8.30;99.90;;;;;;5117049;28;19924;-74
2022/03/01 11:50:14;;;;;;;;;;;8.30;99.90;;;;;;5117150;28;20015;-73
2022/03/01 11:52:49;;;;;;;;;;;8.40;99.90;;;;;;5099006;28;19923;-70
2022/03/01 11:55:15;;;;;;;;;;;8.40;99.90;;;;;;5098082;28;19963;-70
2022/03/01 11:57:42;;;;;;;;;;;8.40;99.90;;;;;;5099033;28;19930;-72
2022/03/01 12:00:26;;;;;;;;;;;8.40;99.90;;;;;;5097900;28;19923;-72
2022/03/01 12:02:52;;;;;;;;;;;8.40;99.90;;;;;;5116402;28;20310;-75
2022/03/01 12:05:22;;;;;;;;;;;8.40;99.90;;;;;;5116776;28;20382;-74
2022/03/01 12:07:48;;;;;;;;;;;6.90;99.90;;;;;;5116506;28;19924;-73
2022/03/01 12:10:19;;;;;;;;;;;8.40;99.90;;;;;;5123660;27;19923;-72
2022/03/01 12:12:46;;;;;;;;;;;8.30;99.90;;;;;;5137101;27;20348;-75
2022/03/01 12:15:12;;;;;;;;;;;8.30;99.90;;;;;;5137016;27;19930;-74
2022/03/01 12:17:42;;;;;;;;;;;9.10;99.90;;;;;;5137299;27;19977;-72
2022/03/01 12:20:09;;;;;;;;;;;8.40;99.90;;;;;;5137005;27;20394;-72
2022/03/01 12:22:35;;;;;;;;;;;8.40;99.90;;;;;;5119082;27;19930;-72
2022/03/01 12:25:00;;;;;;;;;;;8.50;99.90;;;;;;5137086;27;19923;-72
2022/03/01 12:27:29;;;;;;;;;;;8.40;99.90;;;;;;5136828;27;19930;-73
2022/03/01 12:29:55;;;;;;;;;;;8.40;99.90;;;;;;5135975;27;19950;-73
2022/03/01 12:32:21;;;;;;;;;;;8.50;99.90;;;;;;5136821;27;19928;-72
2022/03/01 12:34:47;;;;;;;;;;;8.50;99.90;;;;;;5136751;27;19930;-74
2022/03/01 12:37:18;;;;;;;;;;;8.50;99.90;;;;;;5136649;27;20313;-73
2022/03/01 12:39:45;;;;;;;;;;;8.60;99.90;;;;;;5136443;27;19975;-76
2022/03/01 12:42:10;;;;;;;;;;;8.70;98.90;;;;;;5136459;27;20301;-72
2022/03/01 12:44:36;;;;;;;;;;;8.70;99.90;;;;;;5135069;27;19938;-75
2022/03/01 12:47:03;;;;;;;;;;;8.80;99.90;;;;;;5118645;27;19988;-71
2022/03/01 12:49:33;;;;;;;;;;;8.70;99.90;;;;;;5136509;27;20293;-72
2022/03/01 12:51:59;;;;;;;;;;;8.80;99.90;;;;;;5152825;27;19923;-71
2022/03/01 12:54:26;;;;;;;;;;;9.00;99.90;;;;;;5118106;27;20292;-71
2022/03/01 12:56:53;;;;;;;;;;;8.80;99.90;;;;;;5136237;27;19923;-71
2022/03/01 12:59:20;;;;;;;;;;;8.80;99.90;;;;;;5136073;27;19976;-71
2022/03/01 13:01:47;;;;;;;;;;;8.80;99.90;;;;;;5136100;27;19924;-71
2022/03/01 13:04:13;;;;;;;;;;;8.70;96.50;;;;;;5136441;27;19957;-71
2022/03/01 13:06:40;;;;;;;;;;;8.70;99.90;;;;;;5136151;27;19924;-74
2022/03/01 13:09:06;;;;;;;;;;;8.70;99.90;;;;;;5136066;27;19923;-71
2022/03/01 13:11:31;;;;;;;;;;;8.70;99.90;;;;;;5136025;27;19930;-70
2022/03/01 13:13:57;;;;;;;;;;;8.70;99.90;;;;;;5114671;27;19924;-72
2022/03/01 13:16:22;;;;;;;;;;;9.40;99.90;;;;;;5115195;28;19935;-72
2022/03/01 13:18:49;;;;;;;;;;;9.90;99.50;;;;;;5096592;28;20014;-72
2022/03/01 13:21:21;;;;;;;;;;;8.70;99.90;;;;;;5114871;28;19931;-73
2022/03/01 13:23:49;;;;;;;;;;;8.70;99.90;;;;;;5115166;28;19930;-72
2022/03/01 13:26:15;;;;;;;;;;;8.70;99.90;;;;;;5097169;28;19924;-71
2022/03/01 13:28:40;;;;;;;;;;;9.10;99.90;;;;;;5114217;28;20409;-71
2022/03/01 13:31:06;;;;;;;;;;;8.70;99.90;;;;;;5115123;28;19924;-72
2022/03/01 13:33:33;;;;;;;;;;;8.70;99.90;;;;;;5114002;28;20195;-71
2022/03/01 13:36:10;;;;;;;;;;;8.70;99.90;;;;;;5096280;28;19923;-72
2022/03/01 13:38:36;;;;;;;;;;;8.70;99.90;;;;;;5114767;28;19924;-72
2022/03/01 13:41:02;;;;;;;;;;;8.70;99.90;;;;;;5113482;28;20428;-71
2022/03/01 13:43:28;;;;;;;;;;;8.70;99.90;;;;;;5114562;28;19923;-72
2022/03/01 13:45:56;;;;;;;;;;;8.70;99.90;;;;;;5114746;28;19924;-72
2022/03/01 13:48:21;;;;;;;;;;;8.70;99.90;;;;;;5114751;28;19924;-71
2022/03/01 13:50:48;;;;;;;;;;;8.80;99.90;;;;;;5096560;28;19923;-72
2022/03/01 13:53:18;;;;;;;;;;;8.70;99.90;;;;;;5096861;28;19928;-72
2022/03/01 13:55:45;;;;;;;;;;;8.70;99.90;;;;;;5114037;28;20404;-74
2022/03/01 13:58:15;;;;;;;;;;;9.20;99.90;;;;;;5114387;28;19931;-71
2022/03/01 14:00:57;;;;;;;;;;;8.70;99.90;;;;;;5114052;28;20441;-72
2022/03/01 14:03:32;;;;;;;;;;;8.70;99.90;;;;;;5114485;28;19930;-71
2022/03/01 14:06:03;;;;;;;;;;;8.70;99.90;;;;;;5114414;28;20021;-73
2022/03/01 14:08:30;;;;;;;;;;;8.70;99.90;;;;;;5114362;28;19924;-70
2022/03/01 14:10:57;;;;;;;;;;;8.80;99.90;;;;;;5096231;28;20018;-72
2022/03/01 14:13:25;;;;;;;;;;;8.80;99.90;;;;;;5096180;28;19928;-71
2022/03/01 14:16:15;;;;;;;;;;;8.80;99.90;;;;;;5114181;28;20445;-70
2022/03/01 14:18:44;;;;;;;;;;;8.80;99.90;;;;;;5031371;28;20458;-72
2022/03/01 14:21:11;;;;;;;;;;;8.80;99.90;;;;;;5031153;28;19925;-73
2022/03/01 14:23:38;;;;;;;;;;;8.80;99.90;;;;;;5031439;28;20428;-71
2022/03/01 14:26:04;;;;;;;;;;;8.80;99.90;;;;;;5031263;28;20400;-71
2022/03/01 14:28:30;;;;;;;;;;;8.80;99.90;;;;;;5031385;28;19925;-72
2022/03/01 14:30:59;;;;;;;;;;;8.90;99.90;;;;;;5031272;28;19925;-72